DNPO

Port Harcourt International Airport

Port Harcourt, Nigeria
METAR DNPO 191600Z 25006KT 8000 TS BKN007 FEW020CB 24/23 Q1012 NOSIG
Observed Flight Rules
Aug-19 @ 16:00 UTC (an hour ago) Instrument Flight Rules
Wind Visibility Clouds Conditions
250° at 6 knots 7,998 meters
  • Broken at 700' AGL
  • Few at 2,000' AGL
  • Thunderstorm
Temperatures Readings
Current 24°C / 75°F
Dewpoint 23°C / 73°F
Humidity 94%
Altimeter 29.88" Hg
Pressure 1012 hPa
Elevation 18
METAR DNPO 191600Z 25006KT 8000 TS BKN007 FEW020CB 24/23 Q1012 NOSIG
Observed Flight Rules
Aug-19 @ 16:00 UTC
(an hour ago)
IFR
Wind Visibility
250° at 6 knots 7,998 meters
Clouds
  • Broken at 700' AGL
  • Few at 2,000' AGL
Conditions
  • Thunderstorm
Temperature Dewpoint
24°C / 75°F 23°C / 73°F
Humidity Altimeter Pressure
94% 29.88" Hg 1012 hPa